Time;durP1;ratioP1;P1;durP2;ratioP2;P2;SDS_P1;SDS_P2;PMS_P1;PMS_P2;Temp;Humidity;BMP_temperature;BMP_pressure;BME280_temperature;BME280_humidity;BME280_pressure;Samples;Min_cycle;Max_cycle;Signal;HPM_P1;HPM_P2
2023/08/05 00:01:00;;;;;;;;;;;17.80;99.90;;;;;;5074284;28;19982;-68
2023/08/05 00:03:25;;;;;;;;;;;17.80;99.90;;;;;;5074903;28;19974;-67
2023/08/05 00:05:51;;;;;;;;;;;17.70;99.90;;;;;;5074257;28;19913;-68
2023/08/05 00:08:17;;;;;;;;;;;17.70;99.90;;;;;;5074007;28;20403;-67
2023/08/05 00:10:43;;;;;;;;;;;17.70;99.90;;;;;;5073993;28;20270;-68
2023/08/05 00:13:08;;;;;;;;;;;17.60;99.90;;;;;;5073852;28;19912;-67
2023/08/05 00:15:34;;;;;;;;;;;17.60;99.90;;;;;;5073489;28;19915;-68
2023/08/05 00:17:59;;;;;;;;;;;17.60;99.90;;;;;;5073968;28;19914;-67
2023/08/05 00:20:25;;;;;;;;;;;17.60;99.90;;;;;;5073866;28;20222;-68
2023/08/05 00:22:50;;;;;;;;;;;17.50;99.90;;;;;;5072693;28;20258;-69
2023/08/05 00:25:16;;;;;;;;;;;17.60;99.90;;;;;;5073709;28;19919;-68
2023/08/05 00:27:42;;;;;;;;;;;17.60;99.90;;;;;;5073656;28;20008;-69
2023/08/05 00:30:07;;;;;;;;;;;17.50;99.90;;;;;;5074090;28;19911;-69
2023/08/05 00:32:36;;;;;;;;;;;17.50;99.90;;;;;;5073694;28;20370;-68
2023/08/05 00:35:03;;;;;;;;;;;17.40;99.90;;;;;;5073504;28;19919;-69
2023/08/05 00:37:28;;;;;;;;;;;17.40;99.90;;;;;;5073692;28;19947;-69
2023/08/05 00:39:54;;;;;;;;;;;17.40;99.90;;;;;;5073376;28;19943;-69
2023/08/05 00:42:19;;;;;;;;;;;17.50;99.90;;;;;;5073981;28;19900;-70
2023/08/05 00:44:45;;;;;;;;;;;17.40;99.90;;;;;;5073335;28;19912;-69
2023/08/05 00:47:10;;;;;;;;;;;17.40;99.90;;;;;;5073292;28;19920;-68
2023/08/05 00:49:36;;;;;;;;;;;17.30;99.90;;;;;;5073389;28;19919;-69
2023/08/05 00:52:02;;;;;;;;;;;17.30;99.90;;;;;;5072048;28;20247;-69
2023/08/05 00:54:28;;;;;;;;;;;17.30;99.90;;;;;;5073587;28;19983;-68
2023/08/05 00:56:53;;;;;;;;;;;17.30;99.90;;;;;;5073213;28;20203;-69
2023/08/05 00:59:19;;;;;;;;;;;17.30;99.90;;;;;;5073296;28;19908;-69
2023/08/05 01:01:45;;;;;;;;;;;17.20;99.90;;;;;;5072884;28;19995;-69
2023/08/05 01:04:11;;;;;;;;;;;17.20;99.90;;;;;;5073082;28;19924;-69
2023/08/05 01:06:36;;;;;;;;;;;17.20;99.90;;;;;;5072845;28;19922;-69
2023/08/05 01:09:02;;;;;;;;;;;17.20;99.90;;;;;;5072261;28;19900;-68
2023/08/05 01:11:28;;;;;;;;;;;17.20;99.90;;;;;;5073031;28;19913;-68
2023/08/05 01:13:53;;;;;;;;;;;17.10;99.90;;;;;;5072791;28;19912;-69
2023/08/05 01:16:19;;;;;;;;;;;17.10;99.90;;;;;;5073310;28;20266;-69
2023/08/05 01:18:44;;;;;;;;;;;17.10;99.90;;;;;;5071653;28;20315;-69
2023/08/05 01:21:13;;;;;;;;;;;17.10;99.90;;;;;;5072077;28;19916;-68
2023/08/05 01:23:48;;;;;;;;;;;17.10;99.90;;;;;;5072654;28;19908;-68
2023/08/05 01:26:15;;;;;;;;;;;17.10;99.90;;;;;;5072552;28;19919;-69
2023/08/05 01:28:41;;;;;;;;;;;17.10;99.90;;;;;;5072625;28;19916;-69
2023/08/05 01:31:06;;;;;;;;;;;17.00;99.90;;;;;;5072657;28;19969;-69
2023/08/05 01:33:32;;;;;;;;;;;17.10;99.90;;;;;;5072885;28;19916;-68
2023/08/05 01:35:58;;;;;;;;;;;17.00;99.90;;;;;;5082176;28;19908;-68
2023/08/05 01:38:24;;;;;;;;;;;17.00;99.90;;;;;;5092620;28;20318;-68
2023/08/05 01:40:49;;;;;;;;;;;16.90;99.90;;;;;;5092632;28;20334;-69
2023/08/05 01:43:15;;;;;;;;;;;16.90;99.90;;;;;;5092603;28;20281;-68
2023/08/05 01:45:40;;;;;;;;;;;16.90;99.90;;;;;;5092526;28;20046;-69
2023/08/05 01:48:06;;;;;;;;;;;16.90;99.90;;;;;;5092807;28;19908;-68
2023/08/05 01:50:31;;;;;;;;;;;16.80;99.90;;;;;;5092334;28;19916;-68
2023/08/05 01:52:57;;;;;;;;;;;16.80;99.90;;;;;;5092423;28;19908;-66
2023/08/05 01:55:22;;;;;;;;;;;16.80;99.90;;;;;;5092155;28;19911;-69
2023/08/05 01:57:48;;;;;;;;;;;16.70;99.90;;;;;;5092111;28;19904;-69
2023/08/05 02:00:13;;;;;;;;;;;16.70;99.90;;;;;;5092651;28;20052;-68
2023/08/05 02:02:39;;;;;;;;;;;16.60;99.90;;;;;;5091073;28;19908;-68
2023/08/05 02:05:04;;;;;;;;;;;16.60;99.90;;;;;;5092493;28;19919;-68
2023/08/05 02:07:30;;;;;;;;;;;16.60;99.90;;;;;;5092159;28;19915;-69
2023/08/05 02:09:55;;;;;;;;;;;16.60;99.90;;;;;;5091938;28;19912;-68
2023/08/05 02:12:21;;;;;;;;;;;16.60;99.90;;;;;;5092394;28;19904;-68
2023/08/05 02:14:47;;;;;;;;;;;16.60;99.90;;;;;;5091199;28;20373;-68
2023/08/05 02:17:12;;;;;;;;;;;16.60;99.90;;;;;;5091962;28;20029;-67
2023/08/05 02:19:38;;;;;;;;;;;16.50;99.90;;;;;;5091816;28;20372;-68
2023/08/05 02:22:03;;;;;;;;;;;16.50;99.90;;;;;;5091798;28;19915;-69
2023/08/05 02:24:29;;;;;;;;;;;16.50;99.90;;;;;;5092529;28;19904;-68
2023/08/05 02:26:55;;;;;;;;;;;16.50;99.90;;;;;;5091653;28;19916;-68
2023/08/05 02:29:20;;;;;;;;;;;16.50;99.90;;;;;;5091669;28;19916;-69
2023/08/05 02:31:46;;;;;;;;;;;16.50;99.90;;;;;;5091508;28;19938;-68
2023/08/05 02:34:11;;;;;;;;;;;16.50;99.90;;;;;;5091422;28;20306;-69
2023/08/05 02:36:37;;;;;;;;;;;16.50;99.90;;;;;;5091504;28;19903;-69
2023/08/05 02:39:02;;;;;;;;;;;16.50;99.90;;;;;;5091978;28;19904;-69
2023/08/05 02:41:28;;;;;;;;;;;16.50;99.90;;;;;;5091582;28;20310;-69
2023/08/05 02:43:54;;;;;;;;;;;16.50;99.90;;;;;;5091418;28;19912;-69
2023/08/05 02:46:19;;;;;;;;;;;16.50;99.90;;;;;;5091325;28;19908;-69
2023/08/05 02:48:45;;;;;;;;;;;16.60;99.90;;;;;;5091038;28;20316;-68
2023/08/05 02:51:10;;;;;;;;;;;16.60;99.90;;;;;;5091782;28;20007;-69
2023/08/05 02:53:36;;;;;;;;;;;16.60;99.90;;;;;;5091142;28;20315;-68
2023/08/05 02:56:02;;;;;;;;;;;16.60;99.90;;;;;;5091245;28;20288;-68
2023/08/05 02:58:27;;;;;;;;;;;16.60;99.90;;;;;;5091165;28;19908;-67
2023/08/05 03:00:53;;;;;;;;;;;16.60;99.90;;;;;;5091101;28;20202;-68
2023/08/05 03:03:19;;;;;;;;;;;16.70;99.90;;;;;;5090577;28;19915;-68
2023/08/05 03:05:45;;;;;;;;;;;16.70;99.90;;;;;;5090826;28;19912;-69
2023/08/05 03:08:10;;;;;;;;;;;16.60;99.90;;;;;;5090842;28;19920;-68
2023/08/05 03:10:39;;;;;;;;;;;16.60;99.90;;;;;;5090853;28;19908;-68
2023/08/05 03:13:05;;;;;;;;;;;16.60;99.90;;;;;;5089776;28;19908;-68
2023/08/05 03:15:30;;;;;;;;;;;16.60;99.90;;;;;;5091337;28;19912;-69
2023/08/05 03:17:56;;;;;;;;;;;16.60;99.90;;;;;;5090845;28;19930;-69
2023/08/05 03:20:23;;;;;;;;;;;16.60;99.90;;;;;;5090894;28;19919;-70
2023/08/05 03:22:49;;;;;;;;;;;16.60;99.90;;;;;;5090929;28;19915;-68
2023/08/05 03:25:14;;;;;;;;;;;16.60;99.90;;;;;;5090917;28;19909;-68
2023/08/05 03:27:40;;;;;;;;;;;16.60;99.90;;;;;;5090693;28;19930;-69
2023/08/05 03:30:06;;;;;;;;;;;16.50;99.90;;;;;;5091455;28;19904;-69
2023/08/05 03:32:31;;;;;;;;;;;16.50;99.90;;;;;;5090526;28;20379;-69
2023/08/05 03:34:57;;;;;;;;;;;16.60;99.90;;;;;;5090690;28;19908;-68
2023/08/05 03:37:22;;;;;;;;;;;16.60;99.90;;;;;;5089585;28;19991;-69
2023/08/05 03:39:48;;;;;;;;;;;16.60;99.90;;;;;;5090607;28;20337;-69
2023/08/05 03:42:13;;;;;;;;;;;16.60;99.90;;;;;;5091014;28;20195;-69
2023/08/05 03:44:42;;;;;;;;;;;16.60;99.90;;;;;;5090856;28;20338;-68
2023/08/05 03:47:08;;;;;;;;;;;16.70;99.90;;;;;;5090659;28;19912;-69
2023/08/05 03:49:34;;;;;;;;;;;16.70;99.90;;;;;;5090631;28;19914;-68
2023/08/05 03:51:59;;;;;;;;;;;16.70;99.90;;;;;;5090854;28;20346;-69
2023/08/05 03:54:25;;;;;;;;;;;16.70;99.90;;;;;;5091349;28;19922;-68
2023/08/05 03:56:51;;;;;;;;;;;16.70;99.90;;;;;;5090512;28;19916;-68
2023/08/05 03:59:16;;;;;;;;;;;16.70;99.90;;;;;;5090447;28;19943;-69
2023/08/05 04:01:43;;;;;;;;;;;16.70;99.90;;;;;;5090435;28;19919;-68
2023/08/05 04:04:08;;;;;;;;;;;16.70;99.90;;;;;;5090445;28;19907;-69
2023/08/05 04:06:34;;;;;;;;;;;16.70;99.90;;;;;;5090756;28;19972;-68
2023/08/05 04:09:00;;;;;;;;;;;16.70;99.90;;;;;;5090398;28;20419;-68
2023/08/05 04:11:26;;;;;;;;;;;16.80;99.90;;;;;;5090005;28;19942;-68
2023/08/05 04:13:52;;;;;;;;;;;16.80;99.90;;;;;;5090211;28;19908;-68
2023/08/05 04:16:19;;;;;;;;;;;16.70;99.90;;;;;;5090411;28;20239;-68
2023/08/05 04:18:48;;;;;;;;;;;16.70;99.90;;;;;;5089217;28;19904;-68
2023/08/05 04:21:13;;;;;;;;;;;16.70;99.90;;;;;;5089547;28;19900;-68
2023/08/05 04:23:41;;;;;;;;;;;16.70;99.90;;;;;;5090090;28;19915;-68
2023/08/05 04:26:07;;;;;;;;;;;16.70;99.90;;;;;;5090176;28;19997;-69
2023/08/05 04:28:32;;;;;;;;;;;16.80;99.90;;;;;;5090127;28;19989;-68
2023/08/05 04:30:58;;;;;;;;;;;16.70;99.90;;;;;;5090159;28;19910;-68
2023/08/05 04:33:25;;;;;;;;;;;16.80;99.90;;;;;;5089343;28;19926;-69
2023/08/05 04:35:51;;;;;;;;;;;16.80;99.90;;;;;;5090168;28;20002;-68
2023/08/05 04:38:17;;;;;;;;;;;16.80;99.90;;;;;;5092810;28;20003;-67
2023/08/05 04:40:42;;;;;;;;;;;16.80;99.90;;;;;;5093642;28;19908;-69
2023/08/05 04:43:08;;;;;;;;;;;16.80;99.90;;;;;;5092421;28;19908;-68
2023/08/05 04:45:36;;;;;;;;;;;16.80;99.90;;;;;;5094378;28;19922;-69
2023/08/05 04:48:04;;;;;;;;;;;16.90;99.90;;;;;;5093672;28;19922;-68
2023/08/05 04:50:29;;;;;;;;;;;16.80;99.90;;;;;;5092658;28;19932;-69
2023/08/05 04:52:55;;;;;;;;;;;16.80;99.90;;;;;;5093579;28;20024;-68
2023/08/05 04:55:20;;;;;;;;;;;16.80;99.90;;;;;;5093582;28;20289;-68
2023/08/05 04:57:46;;;;;;;;;;;16.90;99.90;;;;;;5093281;28;20273;-68
2023/08/05 05:00:12;;;;;;;;;;;16.90;99.90;;;;;;5094050;28;19934;-67
2023/08/05 05:02:38;;;;;;;;;;;16.90;99.90;;;;;;5093127;28;19966;-68
2023/08/05 05:05:04;;;;;;;;;;;17.00;99.90;;;;;;5093051;28;20364;-69
2023/08/05 05:07:29;;;;;;;;;;;17.00;99.90;;;;;;5093176;28;19958;-68
2023/08/05 05:09:55;;;;;;;;;;;17.00;99.90;;;;;;5093125;28;19923;-68
2023/08/05 05:12:20;;;;;;;;;;;17.00;99.90;;;;;;5092431;28;19907;-68
2023/08/05 05:14:46;;;;;;;;;;;17.00;99.90;;;;;;5092931;28;20008;-68
2023/08/05 05:17:15;;;;;;;;;;;17.00;99.90;;;;;;5092779;28;19912;-69
2023/08/05 05:19:41;;;;;;;;;;;17.00;99.90;;;;;;5093134;28;19931;-69
2023/08/05 05:22:07;;;;;;;;;;;17.00;99.90;;;;;;5093070;28;19912;-68
2023/08/05 05:24:32;;;;;;;;;;;17.00;99.90;;;;;;5092232;28;20346;-68
2023/08/05 05:26:58;;;;;;;;;;;17.00;99.90;;;;;;5093158;28;19918;-69
2023/08/05 05:29:24;;;;;;;;;;;17.00;99.90;;;;;;5093106;28;19918;-68
2023/08/05 05:31:49;;;;;;;;;;;17.00;99.90;;;;;;5092843;28;20265;-68
2023/08/05 05:34:15;;;;;;;;;;;17.00;99.90;;;;;;5092453;28;20400;-68
2023/08/05 05:36:40;;;;;;;;;;;17.10;99.90;;;;;;5092378;28;19911;-69
2023/08/05 05:39:06;;;;;;;;;;;17.10;99.90;;;;;;5092989;28;20396;-69
2023/08/05 05:41:32;;;;;;;;;;;17.10;99.90;;;;;;5091377;28;19938;-69
2023/08/05 05:43:58;;;;;;;;;;;17.10;99.90;;;;;;5092611;28;19966;-68
2023/08/05 05:46:25;;;;;;;;;;;17.20;99.90;;;;;;5092457;28;19934;-68
2023/08/05 05:48:50;;;;;;;;;;;17.20;99.90;;;;;;5091133;28;19920;-68
2023/08/05 05:51:16;;;;;;;;;;;17.20;99.90;;;;;;5092760;28;19922;-68
2023/08/05 05:53:42;;;;;;;;;;;17.30;99.90;;;;;;5092490;28;19908;-69
2023/08/05 05:56:08;;;;;;;;;;;17.30;99.90;;;;;;5092330;28;20357;-69
2023/08/05 05:58:35;;;;;;;;;;;17.30;99.90;;;;;;5092380;28;19908;-68
2023/08/05 06:01:01;;;;;;;;;;;17.40;99.90;;;;;;5092358;28;20413;-69
2023/08/05 06:03:27;;;;;;;;;;;17.40;99.90;;;;;;5092555;28;19939;-68
2023/08/05 06:05:52;;;;;;;;;;;17.30;99.90;;;;;;5092078;28;20343;-69
2023/08/05 06:08:18;;;;;;;;;;;17.40;99.90;;;;;;5091986;28;20126;-69
2023/08/05 06:10:43;;;;;;;;;;;17.50;99.90;;;;;;5092144;28;19907;-69
2023/08/05 06:13:09;;;;;;;;;;;17.50;99.90;;;;;;5091758;28;19908;-70
2023/08/05 06:15:38;;;;;;;;;;;17.50;99.90;;;;;;5091337;28;19912;-69
2023/08/05 06:18:03;;;;;;;;;;;17.50;99.90;;;;;;5091834;28;19919;-68
2023/08/05 06:20:29;;;;;;;;;;;17.60;99.90;;;;;;5091815;28;19908;-69
2023/08/05 06:22:55;;;;;;;;;;;17.60;99.90;;;;;;5090540;28;19945;-68
2023/08/05 06:25:20;;;;;;;;;;;17.60;99.90;;;;;;5091652;28;20016;-68
2023/08/05 06:27:46;;;;;;;;;;;17.70;99.90;;;;;;5091424;28;19922;-68
2023/08/05 06:30:12;;;;;;;;;;;17.60;99.90;;;;;;5092432;28;20057;-67
2023/08/05 06:32:37;;;;;;;;;;;17.70;99.90;;;;;;5091571;28;19920;-68
2023/08/05 06:35:03;;;;;;;;;;;17.70;99.90;;;;;;5090677;28;19908;-69
2023/08/05 06:37:28;;;;;;;;;;;17.70;99.90;;;;;;5091406;28;20000;-69
2023/08/05 06:39:54;;;;;;;;;;;17.80;99.90;;;;;;5091217;28;20338;-69
2023/08/05 06:42:23;;;;;;;;;;;17.80;99.90;;;;;;5092061;28;20018;-68
2023/08/05 06:44:49;;;;;;;;;;;17.90;99.90;;;;;;5091332;28;19908;-68
2023/08/05 06:47:15;;;;;;;;;;;18.00;99.90;;;;;;5091173;28;19938;-68
2023/08/05 06:49:40;;;;;;;;;;;18.10;99.90;;;;;;5090043;28;20263;-69
2023/08/05 06:52:06;;;;;;;;;;;18.30;99.90;;;;;;5090060;28;19918;-69
2023/08/05 06:54:32;;;;;;;;;;;18.50;99.90;;;;;;5091898;28;19958;-68
2023/08/05 06:56:57;;;;;;;;;;;18.50;99.90;;;;;;5091406;28;19908;-69
2023/08/05 06:59:23;;;;;;;;;;;18.50;99.90;;;;;;5091166;28;19999;-68
2023/08/05 07:01:49;;;;;;;;;;;18.50;99.90;;;;;;5090996;28;19908;-68
2023/08/05 07:04:14;;;;;;;;;;;18.50;99.90;;;;;;5091042;28;19908;-68
2023/08/05 07:06:41;;;;;;;;;;;18.70;99.90;;;;;;5091116;28;19915;-69
2023/08/05 07:09:06;;;;;;;;;;;18.80;99.90;;;;;;5091481;28;19961;-69
2023/08/05 07:11:32;;;;;;;;;;;18.80;99.90;;;;;;5091015;28;20408;-68
2023/08/05 07:13:58;;;;;;;;;;;18.80;99.90;;;;;;5090862;28;20319;-69
2023/08/05 07:16:23;;;;;;;;;;;18.90;99.90;;;;;;5089745;28;20003;-70
2023/08/05 07:18:49;;;;;;;;;;;18.90;99.90;;;;;;5090791;28;19965;-69
2023/08/05 07:21:17;;;;;;;;;;;18.90;99.90;;;;;;5091174;28;19900;-69
2023/08/05 07:23:43;;;;;;;;;;;19.00;99.90;;;;;;5089432;28;20001;-69
2023/08/05 07:26:09;;;;;;;;;;;19.10;99.90;;;;;;5091021;28;19916;-68
2023/08/05 07:28:34;;;;;;;;;;;19.20;99.90;;;;;;5090665;28;20265;-69
2023/08/05 07:31:00;;;;;;;;;;;19.10;99.90;;;;;;5090876;28;20247;-70
2023/08/05 07:33:26;;;;;;;;;;;19.00;99.90;;;;;;5090840;28;20276;-69
2023/08/05 07:35:53;;;;;;;;;;;19.10;99.90;;;;;;5090712;28;19923;-70
2023/08/05 07:38:23;;;;;;;;;;;19.10;99.90;;;;;;5090502;28;19931;-69
2023/08/05 07:40:48;;;;;;;;;;;19.20;99.90;;;;;;5090989;28;19908;-69
2023/08/05 07:43:15;;;;;;;;;;;19.20;99.90;;;;;;5090900;28;20332;-69
2023/08/05 07:45:41;;;;;;;;;;;19.10;99.90;;;;;;5090845;28;20334;-69
2023/08/05 07:48:08;;;;;;;;;;;19.30;99.90;;;;;;5089824;28;19918;-70
2023/08/05 07:50:34;;;;;;;;;;;19.30;99.90;;;;;;5090513;28;19908;-69
2023/08/05 07:52:59;;;;;;;;;;;19.10;99.90;;;;;;5090515;28;19908;-69
2023/08/05 07:55:29;;;;;;;;;;;19.10;99.90;;;;;;5090506;28;19920;-69
2023/08/05 07:57:55;;;;;;;;;;;19.10;99.90;;;;;;5090428;28;19916;-70
2023/08/05 08:00:21;;;;;;;;;;;19.20;99.90;;;;;;5091128;28;20090;-69
2023/08/05 08:02:46;;;;;;;;;;;19.20;99.90;;;;;;5089479;28;19912;-69
2023/08/05 08:05:14;;;;;;;;;;;19.30;99.90;;;;;;5091123;28;19965;-69
2023/08/05 08:07:44;;;;;;;;;;;19.40;99.90;;;;;;5090358;28;20260;-69
2023/08/05 08:10:10;;;;;;;;;;;19.70;99.90;;;;;;5090617;28;19907;-69
2023/08/05 08:12:36;;;;;;;;;;;19.90;99.90;;;;;;5092553;28;19918;-70
2023/08/05 08:15:03;;;;;;;;;;;20.00;99.90;;;;;;5094909;28;19916;-70
2023/08/05 08:17:28;;;;;;;;;;;20.00;99.90;;;;;;5093349;28;19974;-70
2023/08/05 08:19:54;;;;;;;;;;;20.40;99.70;;;;;;5094210;28;20329;-70
2023/08/05 08:22:19;;;;;;;;;;;20.80;99.90;;;;;;5094425;28;19918;-70
2023/08/05 08:24:45;;;;;;;;;;;21.20;99.80;;;;;;5094002;28;19918;-69
2023/08/05 08:27:10;;;;;;;;;;;21.50;98.40;;;;;;5093695;28;19999;-70
2023/08/05 08:29:36;;;;;;;;;;;21.70;97.70;;;;;;5093095;28;19936;-68
2023/08/05 08:32:02;;;;;;;;;;;22.30;97.50;;;;;;5094327;28;19975;-69
2023/08/05 08:34:27;;;;;;;;;;;22.40;97.10;;;;;;5093914;28;19962;-69
2023/08/05 08:36:53;;;;;;;;;;;22.60;96.70;;;;;;5092838;28;19904;-68
2023/08/05 08:39:18;;;;;;;;;;;23.10;96.80;;;;;;5093475;28;19999;-69
2023/08/05 08:41:45;;;;;;;;;;;23.40;95.80;;;;;;5094316;28;19973;-68
2023/08/05 08:44:11;;;;;;;;;;;23.40;95.80;;;;;;5093806;28;19912;-69
2023/08/05 08:46:37;;;;;;;;;;;23.40;95.20;;;;;;5094036;28;19968;-67
2023/08/05 08:49:03;;;;;;;;;;;23.60;95.30;;;;;;5092938;28;20337;-69
2023/08/05 08:51:29;;;;;;;;;;;24.20;94.70;;;;;;5094439;28;19904;-69
2023/08/05 08:53:55;;;;;;;;;;;25.20;93.20;;;;;;5093768;28;19957;-68
2023/08/05 08:56:21;;;;;;;;;;;26.30;92.70;;;;;;5093700;28;20349;-69
2023/08/05 08:58:46;;;;;;;;;;;27.00;90.70;;;;;;5093678;28;19951;-69
2023/08/05 09:01:14;;;;;;;;;;;28.10;90.90;;;;;;5093524;28;19908;-69
2023/08/05 09:03:40;;;;;;;;;;;28.20;85.00;;;;;;5093682;28;20190;-68
2023/08/05 09:06:06;;;;;;;;;;;29.00;83.30;;;;;;5093851;28;19904;-69
2023/08/05 09:08:33;;;;;;;;;;;29.80;80.60;;;;;;5093413;28;20406;-69
2023/08/05 09:11:00;;;;;;;;;;;30.20;78.60;;;;;;5093478;28;20326;-70
2023/08/05 09:13:26;;;;;;;;;;;29.60;76.80;;;;;;5093152;28;19912;-70
2023/08/05 09:15:53;;;;;;;;;;;29.40;77.30;;;;;;5093420;28;19981;-69
2023/08/05 09:18:19;;;;;;;;;;;30.50;76.40;;;;;;5093463;28;19900;-70
2023/08/05 09:20:44;;;;;;;;;;;30.80;76.10;;;;;;5093302;28;19917;-69
2023/08/05 09:23:10;;;;;;;;;;;31.50;70.40;;;;;;5092885;28;20219;-70
2023/08/05 09:25:40;;;;;;;;;;;32.20;69.20;;;;;;5092035;28;19994;-70
2023/08/05 09:28:06;;;;;;;;;;;32.10;67.20;;;;;;5091717;28;20322;-70
2023/08/05 09:30:33;;;;;;;;;;;32.80;66.30;;;;;;5092445;28;20014;-69
2023/08/05 09:32:59;;;;;;;;;;;32.60;65.20;;;;;;5092123;28;20003;-70
2023/08/05 09:35:25;;;;;;;;;;;31.80;66.00;;;;;;5091947;28;20011;-70
2023/08/05 09:37:52;;;;;;;;;;;31.20;65.50;;;;;;5093108;28;20337;-71
2023/08/05 09:40:24;;;;;;;;;;;31.10;67.20;;;;;;5093035;28;19908;-69
2023/08/05 09:42:50;;;;;;;;;;;31.10;65.80;;;;;;5092704;28;19904;-70
2023/08/05 09:45:17;;;;;;;;;;;30.70;68.40;;;;;;5093349;28;19904;-70
2023/08/05 09:47:43;;;;;;;;;;;31.80;66.10;;;;;;5091732;28;20145;-70
2023/08/05 09:50:12;;;;;;;;;;;31.30;64.90;;;;;;5092613;28;19919;-69
2023/08/05 09:52:39;;;;;;;;;;;31.20;64.80;;;;;;5092617;28;19907;-70
2023/08/05 09:55:18;;;;;;;;;;;31.20;64.90;;;;;;5092451;28;19908;-70
2023/08/05 09:57:45;;;;;;;;;;;32.00;65.30;;;;;;5092188;28;19903;-69
2023/08/05 10:00:11;;;;;;;;;;;32.30;65.10;;;;;;5092765;28;19922;-69
2023/08/05 10:02:41;;;;;;;;;;;32.30;61.50;;;;;;5092325;28;20364;-68
2023/08/05 10:05:09;;;;;;;;;;;31.50;60.60;;;;;;5092365;28;19908;-70
2023/08/05 10:07:35;;;;;;;;;;;30.90;60.80;;;;;;5092206;28;19912;-70
2023/08/05 10:10:01;;;;;;;;;;;31.10;61.10;;;;;;5090969;28;19923;-70
2023/08/05 10:12:30;;;;;;;;;;;31.00;60.50;;;;;;5092488;28;19907;-70
2023/08/05 10:14:57;;;;;;;;;;;31.90;62.20;;;;;;5092051;28;19991;-69
2023/08/05 10:17:23;;;;;;;;;;;31.30;59.80;;;;;;5092279;28;19908;-71
2023/08/05 10:19:52;;;;;;;;;;;30.30;60.40;;;;;;5073760;28;19922;-70
2023/08/05 10:22:22;;;;;;;;;;;29.80;62.20;;;;;;5092080;28;19908;-70
2023/08/05 10:24:51;;;;;;;;;;;29.30;61.40;;;;;;5091975;28;19912;-69
2023/08/05 10:27:17;;;;;;;;;;;28.80;62.90;;;;;;5092436;28;20335;-69
2023/08/05 10:29:52;;;;;;;;;;;28.70;63.80;;;;;;5091609;28;19911;-68
2023/08/05 10:32:27;;;;;;;;;;;28.30;65.30;;;;;;5091590;28;19915;-68
2023/08/05 10:35:11;;;;;;;;;;;27.90;64.90;;;;;;5091086;28;19931;-68
2023/08/05 10:37:49;;;;;;;;;;;27.60;65.90;;;;;;5091579;28;19915;-69
2023/08/05 10:40:36;;;;;;;;;;;27.30;67.20;;;;;;5091455;28;19916;-69
2023/08/05 10:43:01;;;;;;;;;;;26.90;67.60;;;;;;5091781;28;19916;-69
2023/08/05 10:45:27;;;;;;;;;;;26.70;68.90;;;;;;5092060;28;20004;-69
2023/08/05 10:47:53;;;;;;;;;;;26.40;69.50;;;;;;5091359;28;20384;-69
2023/08/05 10:50:18;;;;;;;;;;;26.00;69.30;;;;;;5091562;28;19908;-68
2023/08/05 10:52:44;;;;;;;;;;;25.70;70.40;;;;;;5091546;28;19908;-69
2023/08/05 10:55:10;;;;;;;;;;;25.80;71.00;;;;;;5091268;28;19908;-69
2023/08/05 10:57:39;;;;;;;;;;;25.70;70.80;;;;;;5091368;28;19908;-70
2023/08/05 11:00:07;;;;;;;;;;;25.60;70.90;;;;;;5090875;28;19904;-68
2023/08/05 11:02:32;;;;;;;;;;;25.50;71.40;;;;;;5090383;28;19990;-69
2023/08/05 11:05:05;;;;;;;;;;;25.20;71.00;;;;;;5090198;28;19916;-69
2023/08/05 11:07:31;;;;;;;;;;;25.00;72.10;;;;;;5091245;28;19916;-68
2023/08/05 11:09:57;;;;;;;;;;;24.90;72.90;;;;;;5090991;28;20050;-68
2023/08/05 11:12:24;;;;;;;;;;;24.80;73.40;;;;;;5091486;28;19995;-69
2023/08/05 11:14:49;;;;;;;;;;;24.70;73.50;;;;;;5091015;28;20277;-68
2023/08/05 11:17:15;;;;;;;;;;;24.60;74.20;;;;;;5091028;28;19912;-68
2023/08/05 11:19:54;;;;;;;;;;;24.40;75.50;;;;;;5090924;28;19919;-68
2023/08/05 11:22:26;;;;;;;;;;;24.40;76.30;;;;;;5091057;28;19912;-68
2023/08/05 11:24:56;;;;;;;;;;;24.30;76.40;;;;;;5091050;28;19965;-67
2023/08/05 11:27:28;;;;;;;;;;;24.10;78.00;;;;;;5091516;28;19999;-68
2023/08/05 11:29:53;;;;;;;;;;;24.20;77.90;;;;;;5090921;28;19975;-68
2023/08/05 11:32:19;;;;;;;;;;;24.20;78.40;;;;;;5090819;28;19987;-69
2023/08/05 11:34:45;;;;;;;;;;;24.40;77.70;;;;;;5089692;28;19934;-68
2023/08/05 11:37:10;;;;;;;;;;;24.20;76.30;;;;;;5090764;28;19916;-68
2023/08/05 11:39:36;;;;;;;;;;;24.10;77.00;;;;;;5090807;28;19908;-68
2023/08/05 11:42:01;;;;;;;;;;;24.10;77.50;;;;;;5091215;28;19957;-68
2023/08/05 11:44:27;;;;;;;;;;;24.00;77.50;;;;;;5090742;28;20381;-69
2023/08/05 11:46:52;;;;;;;;;;;24.10;78.40;;;;;;5093075;28;20003;-69
2023/08/05 11:49:18;;;;;;;;;;;24.30;78.00;;;;;;5095068;28;19908;-69
2023/08/05 11:51:47;;;;;;;;;;;24.20;78.60;;;;;;5094782;28;19904;-69
2023/08/05 11:54:12;;;;;;;;;;;24.30;78.30;;;;;;5095017;28;20354;-68
2023/08/05 11:56:38;;;;;;;;;;;24.20;77.70;;;;;;5094903;28;19908;-68
2023/08/05 11:59:03;;;;;;;;;;;24.30;78.10;;;;;;5095107;28;19908;-70
2023/08/05 12:01:29;;;;;;;;;;;24.50;78.00;;;;;;5094582;28;19955;-69
2023/08/05 12:03:57;;;;;;;;;;;24.60;77.50;;;;;;5094512;28;19916;-68
2023/08/05 12:06:26;;;;;;;;;;;24.60;77.70;;;;;;5094997;28;20287;-68
2023/08/05 12:08:58;;;;;;;;;;;24.80;78.00;;;;;;5094559;28;19916;-69
2023/08/05 12:11:24;;;;;;;;;;;24.90;78.00;;;;;;5094506;28;19908;-69
2023/08/05 12:13:50;;;;;;;;;;;24.90;77.20;;;;;;5094282;28;19908;-69
2023/08/05 12:16:16;;;;;;;;;;;24.90;77.10;;;;;;5094542;28;20006;-69
2023/08/05 12:18:42;;;;;;;;;;;25.00;77.40;;;;;;5094201;28;20384;-69
2023/08/05 12:21:07;;;;;;;;;;;25.00;76.80;;;;;;5095116;28;19907;-69
2023/08/05 12:23:39;;;;;;;;;;;24.90;76.10;;;;;;5094265;28;19908;-69
2023/08/05 12:26:05;;;;;;;;;;;24.80;75.90;;;;;;5094399;28;19979;-69
2023/08/05 12:28:30;;;;;;;;;;;24.80;76.20;;;;;;5092867;28;20405;-69
2023/08/05 12:30:55;;;;;;;;;;;24.90;76.00;;;;;;5094090;28;19912;-68
2023/08/05 12:33:21;;;;;;;;;;;24.80;76.00;;;;;;5094479;28;20347;-68
2023/08/05 12:35:47;;;;;;;;;;;24.90;76.10;;;;;;5094188;28;19912;-69
2023/08/05 12:38:12;;;;;;;;;;;24.80;75.10;;;;;;5093903;28;20353;-68
2023/08/05 12:40:38;;;;;;;;;;;24.80;76.00;;;;;;5093833;28;19908;-69
2023/08/05 12:43:03;;;;;;;;;;;24.80;76.40;;;;;;5094062;28;20005;-68
2023/08/05 12:45:29;;;;;;;;;;;24.70;75.70;;;;;;5093267;28;20333;-69
2023/08/05 12:47:54;;;;;;;;;;;24.70;75.70;;;;;;5093749;28;19922;-69
2023/08/05 12:50:20;;;;;;;;;;;24.70;75.20;;;;;;5093725;28;19943;-68
2023/08/05 12:52:46;;;;;;;;;;;24.70;75.20;;;;;;5093414;28;19994;-69
2023/08/05 12:55:11;;;;;;;;;;;24.60;76.60;;;;;;5093527;28;20293;-68
2023/08/05 12:57:37;;;;;;;;;;;24.50;76.90;;;;;;5092131;28;19935;-70
2023/08/05 13:00:03;;;;;;;;;;;24.60;77.20;;;;;;5094008;28;19998;-69
2023/08/05 13:02:28;;;;;;;;;;;24.60;76.60;;;;;;5092386;28;20272;-69
2023/08/05 13:04:54;;;;;;;;;;;24.60;77.40;;;;;;5093437;28;20010;-69
2023/08/05 13:07:20;;;;;;;;;;;24.50;77.50;;;;;;5093265;28;19977;-68
2023/08/05 13:09:45;;;;;;;;;;;24.50;76.40;;;;;;5093236;28;19908;-69
2023/08/05 13:12:11;;;;;;;;;;;24.40;76.20;;;;;;5093843;28;19899;-68
2023/08/05 13:14:37;;;;;;;;;;;24.50;76.90;;;;;;5092379;28;19930;-69
2023/08/05 13:17:02;;;;;;;;;;;24.50;77.00;;;;;;5093233;28;20325;-69
2023/08/05 13:19:28;;;;;;;;;;;24.60;77.70;;;;;;5093307;28;19908;-68
2023/08/05 13:21:53;;;;;;;;;;;24.60;77.60;;;;;;5092835;28;20211;-69
2023/08/05 13:24:19;;;;;;;;;;;24.50;77.30;;;;;;5093594;28;19955;-68
2023/08/05 13:26:44;;;;;;;;;;;24.40;76.00;;;;;;5092015;28;19957;-68
2023/08/05 13:29:10;;;;;;;;;;;24.30;76.50;;;;;;5092970;28;20346;-69
2023/08/05 13:31:35;;;;;;;;;;;24.20;77.50;;;;;;5093160;28;19965;-68
2023/08/05 13:34:01;;;;;;;;;;;24.30;77.70;;;;;;5091686;28;19959;-69
2023/08/05 13:36:27;;;;;;;;;;;24.40;77.70;;;;;;5093386;28;19919;-69
2023/08/05 13:38:52;;;;;;;;;;;24.40;77.00;;;;;;5093225;28;20415;-69
2023/08/05 13:41:18;;;;;;;;;;;24.40;77.30;;;;;;5092896;28;19957;-68
2023/08/05 13:43:45;;;;;;;;;;;24.40;77.30;;;;;;5091500;28;19935;-68
2023/08/05 13:46:10;;;;;;;;;;;24.30;75.50;;;;;;5092861;28;20324;-68
2023/08/05 13:48:37;;;;;;;;;;;24.20;75.60;;;;;;5092521;28;20014;-68
2023/08/05 13:51:04;;;;;;;;;;;24.30;76.60;;;;;;5093052;28;19929;-67
2023/08/05 13:53:30;;;;;;;;;;;24.30;76.90;;;;;;5092356;28;19915;-68
2023/08/05 13:55:56;;;;;;;;;;;24.30;78.90;;;;;;5092644;28;19915;-68
2023/08/05 13:58:22;;;;;;;;;;;24.40;79.80;;;;;;5092313;28;19950;-69
2023/08/05 14:00:47;;;;;;;;;;;24.40;79.80;;;;;;5092305;28;19948;-67
2023/08/05 14:03:13;;;;;;;;;;;24.40;79.90;;;;;;5091964;28;19958;-69
2023/08/05 14:05:38;;;;;;;;;;;24.40;79.30;;;;;;5090207;28;20329;-69
2023/08/05 14:08:04;;;;;;;;;;;24.50;79.70;;;;;;5091247;28;20338;-69
2023/08/05 14:10:29;;;;;;;;;;;24.50;79.60;;;;;;5091538;28;19961;-69